CGVAR CYXU-CYXU
Flight info
| Callsign | CGVAR |
|---|---|
| Flight time | 0h 31m |
| Altitude | 1900 |
| Route | VFR CIRCUITS |
| Aircraft | TBM9 |
Departure
| Time | 2026-05-03 20:43 |
|---|---|
| Airport | London International Airport (CYXU) |
Arrival
| Time | 2026-05-03 21:14 |
|---|---|
| Airport | London International Airport (CYXU) |
| Time | Latitude | Longitude | Altitude | Speed | Heading |
|---|---|---|---|---|---|
| 2026-05-03 20:27 | 43.03561 | -81.16313 | 909 ft | 0 kts | 264° |
| 2026-05-03 20:35 | 43.03578 | -81.16301 | 909 ft | 5 kts | 76° |
| 2026-05-03 20:35 | 43.03579 | -81.16298 | 909 ft | 0 kts | 76° |
| 2026-05-03 20:37 | 43.03599 | -81.16235 | 909 ft | 15 kts | 57° |
| 2026-05-03 20:38 | 43.03651 | -81.16109 | 909 ft | 17 kts | 82° |
| 2026-05-03 20:38 | 43.03674 | -81.15942 | 908 ft | 15 kts | 82° |
| 2026-05-03 20:38 | 43.03702 | -81.15764 | 907 ft | 23 kts | 80° |
| 2026-05-03 20:38 | 43.03628 | -81.15602 | 908 ft | 23 kts | 138° |
| 2026-05-03 20:39 | 43.03490 | -81.15436 | 910 ft | 29 kts | 136° |
| 2026-05-03 20:39 | 43.03323 | -81.15235 | 910 ft | 30 kts | 140° |
| 2026-05-03 20:39 | 43.03282 | -81.15176 | 910 ft | 5 kts | 89° |
| 2026-05-03 20:39 | 43.03334 | -81.15120 | 912 ft | 16 kts | 51° |
| 2026-05-03 20:40 | 43.03433 | -81.14968 | 915 ft | 25 kts | 45° |
| 2026-05-03 20:40 | 43.03577 | -81.14777 | 914 ft | 32 kts | 44° |
| 2026-05-03 20:40 | 43.03747 | -81.14552 | 906 ft | 23 kts | 41° |
| 2026-05-03 20:40 | 43.03852 | -81.14414 | 906 ft | 6 kts | 33° |
| 2026-05-03 20:41 | 43.03887 | -81.14419 | 906 ft | 6 kts | 340° |
| 2026-05-03 20:41 | 43.03932 | -81.14440 | 906 ft | 7 kts | 344° |
| 2026-05-03 20:41 | 43.03966 | -81.14457 | 907 ft | 1 kts | 336° |
| 2026-05-03 20:42 | 43.04007 | -81.14479 | 907 ft | 16 kts | 336° |
| 2026-05-03 20:42 | 43.04060 | -81.14581 | 909 ft | 0 kts | 257° |
| 2026-05-03 20:42 | 43.04021 | -81.14866 | 910 ft | 68 kts | 258° |
| 2026-05-03 20:43 | 43.03894 | -81.15785 | 983 ft | 122 kts | 261° |
| 2026-05-03 20:43 | 43.03642 | -81.16960 | 1379 ft | 141 kts | 256° |
| 2026-05-03 20:43 | 43.03280 | -81.18138 | 2365 ft | 127 kts | 236° |
| 2026-05-03 20:43 | 43.02558 | -81.19030 | 2744 ft | 161 kts | 227° |
| 2026-05-03 20:44 | 43.01664 | -81.20215 | 2628 ft | 197 kts | 229° |
| 2026-05-03 20:44 | 43.00414 | -81.21226 | 2490 ft | 224 kts | 202° |
| 2026-05-03 20:44 | 42.98795 | -81.21238 | 2341 ft | 245 kts | 173° |
| 2026-05-03 20:44 | 42.97245 | -81.20134 | 2159 ft | 261 kts | 146° |
| 2026-05-03 20:45 | 42.96195 | -81.18219 | 1876 ft | 236 kts | 117° |
| 2026-05-03 20:45 | 42.95897 | -81.16181 | 1878 ft | 208 kts | 101° |
| 2026-05-03 20:45 | 42.95733 | -81.14286 | 1876 ft | 195 kts | 101° |
| 2026-05-03 20:45 | 42.95601 | -81.12483 | 1869 ft | 189 kts | 92° |
| 2026-05-03 20:46 | 42.95779 | -81.10723 | 1879 ft | 188 kts | 74° |
| 2026-05-03 20:46 | 42.96308 | -81.09068 | 1882 ft | 191 kts | 65° |
| 2026-05-03 20:46 | 42.96865 | -81.07429 | 1876 ft | 188 kts | 56° |
| 2026-05-03 20:46 | 42.97843 | -81.06352 | 1882 ft | 179 kts | 13° |
| 2026-05-03 20:47 | 42.99044 | -81.06229 | 1884 ft | 172 kts | 352° |
| 2026-05-03 20:47 | 43.00220 | -81.05952 | 1894 ft | 178 kts | 13° |
| 2026-05-03 20:47 | 43.01375 | -81.05313 | 1895 ft | 180 kts | 17° |
| 2026-05-03 20:47 | 43.02557 | -81.04787 | 1891 ft | 173 kts | 358° |
| 2026-05-03 20:48 | 43.03591 | -81.05044 | 1893 ft | 149 kts | 327° |
| 2026-05-03 20:48 | 43.04406 | -81.05861 | 1884 ft | 130 kts | 303° |
| 2026-05-03 20:48 | 43.04834 | -81.06841 | 1878 ft | 112 kts | 285° |
| 2026-05-03 20:48 | 43.04947 | -81.07437 | 1859 ft | 86 kts | 272° |
| 2026-05-03 20:49 | 43.04966 | -81.07687 | 1758 ft | 85 kts | 271° |
| 2026-05-03 20:49 | 43.04892 | -81.08367 | 1648 ft | 93 kts | 258° |
| 2026-05-03 20:49 | 43.04757 | -81.09195 | 1514 ft | 87 kts | 260° |
| 2026-05-03 20:49 | 43.04639 | -81.09985 | 1444 ft | 81 kts | 264° |
| 2026-05-03 20:50 | 43.04543 | -81.10755 | 1442 ft | 85 kts | 262° |
| 2026-05-03 20:50 | 43.04461 | -81.11601 | 1374 ft | 93 kts | 262° |
| 2026-05-03 20:50 | 43.04343 | -81.12457 | 1264 ft | 89 kts | 263° |
| 2026-05-03 20:50 | 43.04245 | -81.13197 | 1117 ft | 75 kts | 265° |
| 2026-05-03 20:51 | 43.04144 | -81.13918 | 1001 ft | 80 kts | 266° |
| 2026-05-03 20:51 | 43.04050 | -81.14648 | 911 ft | 73 kts | 252° |
| 2026-05-03 20:51 | 43.03960 | -81.15306 | 913 ft | 85 kts | 258° |
| 2026-05-03 20:51 | 43.03767 | -81.16304 | 1142 ft | 124 kts | 260° |
| 2026-05-03 20:52 | 43.03579 | -81.17605 | 1415 ft | 154 kts | 267° |
| 2026-05-03 20:52 | 43.03513 | -81.19222 | 1553 ft | 184 kts | 263° |
| 2026-05-03 20:52 | 43.03326 | -81.20924 | 1763 ft | 178 kts | 261° |
| 2026-05-03 20:52 | 43.03080 | -81.22522 | 1876 ft | 174 kts | 246° |
| 2026-05-03 20:53 | 43.02204 | -81.23701 | 1878 ft | 185 kts | 210° |
| 2026-05-03 20:53 | 43.00921 | -81.23820 | 1872 ft | 182 kts | 174° |
| 2026-05-03 20:53 | 42.99833 | -81.23289 | 1878 ft | 157 kts | 165° |
| 2026-05-03 20:53 | 42.99038 | -81.22326 | 1870 ft | 159 kts | 121° |
| 2026-05-03 20:54 | 42.99004 | -81.20829 | 1880 ft | 161 kts | 80° |
| 2026-05-03 20:54 | 42.99599 | -81.17058 | 1903 ft | 232 kts | 78° |
| 2026-05-03 20:54 | 42.99957 | -81.14886 | 1903 ft | 236 kts | 79° |
| 2026-05-03 20:55 | 43.00327 | -81.12756 | 1896 ft | 225 kts | 78° |
| 2026-05-03 20:55 | 43.00667 | -81.10913 | 1876 ft | 177 kts | 77° |
| 2026-05-03 20:55 | 43.00976 | -81.09404 | 1831 ft | 158 kts | 66° |
| 2026-05-03 20:55 | 43.01579 | -81.08171 | 1592 ft | 153 kts | 44° |
| 2026-05-03 20:56 | 43.02402 | -81.07634 | 1800 ft | 119 kts | 5° |
| 2026-05-03 20:56 | 43.03213 | -81.07517 | 1774 ft | 103 kts | 345° |
| 2026-05-03 20:56 | 43.03858 | -81.07745 | 1835 ft | 95 kts | 328° |
| 2026-05-03 20:56 | 43.04472 | -81.08021 | 1913 ft | 96 kts | 329° |
| 2026-05-03 20:57 | 43.04911 | -81.08591 | 1940 ft | 78 kts | 284° |
| 2026-05-03 20:57 | 43.04872 | -81.09326 | 1891 ft | 83 kts | 256° |
| 2026-05-03 20:57 | 43.04728 | -81.10086 | 1727 ft | 79 kts | 255° |
| 2026-05-03 20:57 | 43.04580 | -81.10766 | 1576 ft | 76 kts | 256° |
| 2026-05-03 20:58 | 43.04466 | -81.11534 | 1465 ft | 84 kts | 263° |
| 2026-05-03 20:58 | 43.04384 | -81.12270 | 1270 ft | 74 kts | 263° |
| 2026-05-03 20:58 | 43.04292 | -81.12970 | 1155 ft | 80 kts | 262° |
| 2026-05-03 20:58 | 43.04160 | -81.13780 | 1047 ft | 88 kts | 271° |
| 2026-05-03 20:59 | 43.04069 | -81.14499 | 923 ft | 70 kts | 268° |
| 2026-05-03 20:59 | 43.03979 | -81.15168 | 912 ft | 62 kts | 263° |
| 2026-05-03 20:59 | 43.03841 | -81.15888 | 995 ft | 103 kts | 258° |
| 2026-05-03 20:59 | 43.03616 | -81.16917 | 1538 ft | 124 kts | 257° |
| 2026-05-03 21:00 | 43.03344 | -81.18272 | 1689 ft | 169 kts | 255° |
| 2026-05-03 21:00 | 43.03145 | -81.19388 | 1804 ft | 188 kts | 259° |
| 2026-05-03 21:00 | 43.02757 | -81.21742 | 1889 ft | 175 kts | 253° |
| 2026-05-03 21:00 | 43.02134 | -81.22901 | 1872 ft | 141 kts | 215° |
| 2026-05-03 21:01 | 43.01218 | -81.22864 | 1876 ft | 151 kts | 165° |
| 2026-05-03 21:01 | 43.00119 | -81.22119 | 1907 ft | 197 kts | 163° |
| 2026-05-03 21:01 | 42.98763 | -81.21323 | 1899 ft | 223 kts | 161° |
| 2026-05-03 21:01 | 42.97584 | -81.19995 | 1876 ft | 213 kts | 129° |
| 2026-05-03 21:02 | 42.97214 | -81.18120 | 1870 ft | 203 kts | 90° |
| 2026-05-03 21:02 | 42.97431 | -81.16275 | 1884 ft | 198 kts | 82° |
| 2026-05-03 21:02 | 42.97683 | -81.14419 | 1881 ft | 199 kts | 81° |
| 2026-05-03 21:02 | 42.97934 | -81.12565 | 1877 ft | 198 kts | 81° |
| 2026-05-03 21:03 | 42.98192 | -81.10731 | 1882 ft | 194 kts | 82° |
| 2026-05-03 21:03 | 42.98589 | -81.08975 | 1874 ft | 193 kts | 58° |
| 2026-05-03 21:03 | 42.99590 | -81.07850 | 1876 ft | 185 kts | 13° |
| 2026-05-03 21:03 | 43.00835 | -81.07697 | 1879 ft | 178 kts | 352° |
| 2026-05-03 21:04 | 43.02056 | -81.07748 | 1881 ft | 164 kts | 352° |
| 2026-05-03 21:04 | 43.03136 | -81.07775 | 1888 ft | 148 kts | 350° |
| 2026-05-03 21:04 | 43.04056 | -81.08075 | 1901 ft | 122 kts | 322° |
| 2026-05-03 21:04 | 43.04558 | -81.08752 | 1767 ft | 85 kts | 290° |
| 2026-05-03 21:05 | 43.04693 | -81.09433 | 1774 ft | 76 kts | 271° |
| 2026-05-03 21:05 | 43.04670 | -81.10093 | 2050 ft | 60 kts | 256° |
| 2026-05-03 21:05 | 43.04617 | -81.10692 | 2059 ft | 75 kts | 259° |
| 2026-05-03 21:05 | 43.04532 | -81.11395 | 1940 ft | 68 kts | 257° |
| 2026-05-03 21:06 | 43.04436 | -81.12036 | 1693 ft | 67 kts | 258° |
| 2026-05-03 21:06 | 43.04335 | -81.12660 | 1438 ft | 68 kts | 259° |
| 2026-05-03 21:06 | 43.04236 | -81.13328 | 1190 ft | 72 kts | 263° |
| 2026-05-03 21:06 | 43.04139 | -81.13998 | 1006 ft | 66 kts | 268° |
| 2026-05-03 21:07 | 43.04058 | -81.14574 | 909 ft | 58 kts | 258° |
| 2026-05-03 21:07 | 43.03987 | -81.15150 | 912 ft | 87 kts | 256° |
| 2026-05-03 21:07 | 43.03832 | -81.16141 | 1286 ft | 117 kts | 264° |
| 2026-05-03 21:07 | 43.03712 | -81.17269 | 1991 ft | 128 kts | 260° |
| 2026-05-03 21:08 | 43.03635 | -81.18744 | 1899 ft | 177 kts | 263° |
| 2026-05-03 21:08 | 43.03093 | -81.20358 | 1901 ft | 202 kts | 230° |
| 2026-05-03 21:08 | 43.01980 | -81.21231 | 1876 ft | 170 kts | 196° |
| 2026-05-03 21:08 | 43.00907 | -81.20952 | 1874 ft | 148 kts | 167° |
| 2026-05-03 21:09 | 43.00050 | -81.20424 | 1869 ft | 122 kts | 168° |
| 2026-05-03 21:09 | 42.99458 | -81.19708 | 1827 ft | 119 kts | 115° |
| 2026-05-03 21:09 | 42.99535 | -81.18621 | 1747 ft | 109 kts | 78° |
| 2026-05-03 21:09 | 42.99712 | -81.17436 | 1891 ft | 150 kts | 80° |
| 2026-05-03 21:10 | 42.99933 | -81.15835 | 1914 ft | 188 kts | 83° |
| 2026-05-03 21:10 | 43.00210 | -81.13972 | 1915 ft | 209 kts | 81° |
| 2026-05-03 21:10 | 43.00515 | -81.11977 | 1904 ft | 220 kts | 79° |
| 2026-05-03 21:10 | 43.00876 | -81.09942 | 1881 ft | 225 kts | 68° |
| 2026-05-03 21:11 | 43.01440 | -81.07945 | 1886 ft | 227 kts | 71° |
| 2026-05-03 21:11 | 43.02249 | -81.06101 | 1870 ft | 229 kts | 44° |
| 2026-05-03 21:11 | 43.03558 | -81.05077 | 1869 ft | 199 kts | 8° |
| 2026-05-03 21:11 | 43.04792 | -81.05276 | 1868 ft | 172 kts | 325° |
| 2026-05-03 21:12 | 43.05609 | -81.06527 | 1876 ft | 168 kts | 289° |
| 2026-05-03 21:12 | 43.05531 | -81.07620 | 1777 ft | 113 kts | 232° |
| 2026-05-03 21:12 | 43.05015 | -81.08411 | 1610 ft | 96 kts | 236° |
| 2026-05-03 21:12 | 43.04860 | -81.09119 | 1498 ft | 85 kts | 256° |
| 2026-05-03 21:13 | 43.04746 | -81.09986 | 1504 ft | 92 kts | 255° |
| 2026-05-03 21:13 | 43.04619 | -81.10802 | 1459 ft | 80 kts | 255° |
| 2026-05-03 21:13 | 43.04502 | -81.11490 | 1334 ft | 74 kts | 257° |
| 2026-05-03 21:13 | 43.04416 | -81.12154 | 1231 ft | 70 kts | 258° |
| 2026-05-03 21:14 | 43.04328 | -81.12817 | 1086 ft | 82 kts | 251° |
| 2026-05-03 21:14 | 43.04198 | -81.13628 | 1004 ft | 77 kts | 253° |
| 2026-05-03 21:14 | 43.04122 | -81.14214 | 918 ft | 51 kts | 253° |
| 2026-05-03 21:14 | 43.04059 | -81.14589 | 909 ft | 32 kts | 255° |
| 2026-05-03 21:15 | 43.04011 | -81.14870 | 910 ft | 36 kts | 253° |
| 2026-05-03 21:15 | 43.03973 | -81.15169 | 912 ft | 27 kts | 255° |
| 2026-05-03 21:15 | 43.03940 | -81.15399 | 912 ft | 25 kts | 257° |
| 2026-05-03 21:15 | 43.03895 | -81.15719 | 911 ft | 35 kts | 258° |
| 2026-05-03 21:16 | 43.03845 | -81.15857 | 909 ft | 14 kts | 150° |
| 2026-05-03 21:16 | 43.03762 | -81.15764 | 907 ft | 18 kts | 139° |
| 2026-05-03 21:16 | 43.03732 | -81.15738 | 907 ft | 9 kts | 170° |
| 2026-05-03 21:16 | 43.03679 | -81.15915 | 908 ft | 26 kts | 260° |
| 2026-05-03 21:17 | 43.03646 | -81.16145 | 909 ft | 16 kts | 262° |
| 2026-05-03 21:17 | 43.03604 | -81.16186 | 908 ft | 8 kts | 167° |
| 2026-05-03 21:17 | 43.03564 | -81.16161 | 907 ft | 0 kts | 80° |
| 2026-05-03 21:17 | 43.03567 | -81.16144 | 907 ft | 0 kts | 75° |